.
WxDataArchive / Data Records for 2014-04-30
2014-04-29 April 2014 2014-05-01

Data Records for Wednesday, 30 April 2014

Time	Temp	Chill	HIndex	Humid	Dewpt	 Wind 	HiWind	WindDir	Rain 	Barom
-----	----	-----	------	-----	-----	------	------	-------	-----	-----
00:00	54.1	54.1	54.1	77	47.0	0	2	90	0.00	29.717 
00:05	54.1	54.1	54.1	78	47.4	1	3	90	0.00	29.717 
00:10	54.1	54.1	54.1	78	47.4	0	2	112	0.00	29.717 
00:15	54.1	54.1	54.1	78	47.4	1	5	112	0.00	29.730 
00:20	54.1	54.1	54.1	77	47.0	2	6	112	0.00	29.730 
00:25	54.2	54.2	54.2	77	47.1	1	4	112	0.00	29.730 
00:30	54.4	54.4	54.4	77	47.3	1	4	90	0.00	29.731 
00:35	54.4	54.4	54.4	77	47.3	2	6	135	0.00	29.731 
00:40	54.5	54.5	54.5	77	47.4	1	7	112	0.00	29.731 
00:45	54.7	54.7	54.7	77	47.6	2	5	112	0.00	29.721 
00:50	54.7	54.7	54.7	77	47.6	1	6	112	0.00	29.721 
00:55	54.7	54.7	54.7	77	47.6	1	3	90	0.00	29.721 
01:00	54.5	54.5	54.5	77	47.4	0	4	90	0.00	29.716 
01:05	54.4	54.4	54.4	78	47.7	1	7	90	0.00	29.716 
01:10	54.5	54.5	54.5	78	47.8	1	4	90	0.00	29.716 
01:15	54.4	54.4	54.4	78	47.7	1	3	112	0.00	29.716 
01:20	54.2	54.2	54.2	78	47.5	1	3	112	0.00	29.716 
01:25	54.2	54.2	54.2	79	47.8	0	2	112	0.00	29.716 
01:30	54.1	54.1	54.1	79	47.7	1	4	112	0.00	29.714 
01:35	53.9	53.9	53.9	79	47.5	0	4	112	0.00	29.714 
01:40	53.8	53.8	53.8	80	47.8	0	1	112	0.00	29.714 
01:45	53.8	53.8	53.8	80	47.8	1	3	112	0.00	29.711 
01:50	53.6	53.6	53.6	80	47.6	0	6	112	0.00	29.711 
01:55	53.5	53.5	53.5	81	47.8	0	2	112	0.00	29.711 
02:00	53.3	53.3	53.3	81	47.6	0	2	112	0.00	29.714 
02:05	53.2	53.2	53.2	81	47.5	0	3	112	0.00	29.714 
02:10	53.2	53.2	53.2	81	47.5	0	2	112	0.00	29.714 
02:15	53.1	53.1	53.1	82	47.8	0	2	112	0.00	29.711 
02:20	53.1	53.1	53.1	82	47.8	0	2	112	0.00	29.711 
02:25	52.9	52.9	52.9	82	47.6	0	1	112	0.00	29.711 
02:30	52.8	52.8	52.8	83	47.8	0	1	112	0.00	29.710 
02:35	52.6	52.6	52.6	83	47.6	0	1	112	0.00	29.710 
02:40	52.5	52.5	52.5	83	47.5	0	1	112	0.00	29.710 
02:45	52.3	52.3	52.3	84	47.6	0	2	112	0.00	29.717 
02:50	52.2	52.2	52.2	84	47.5	1	3	135	0.00	29.717 
02:55	52.2	52.2	52.2	84	47.5	1	3	112	0.00	29.717 
03:00	52.2	52.2	52.2	85	47.8	1	3	112	0.00	29.717 
03:05	52.2	52.2	52.2	85	47.8	1	3	112	0.00	29.717 
03:10	52.2	52.2	52.2	85	47.8	0	2	112	0.00	29.717 
03:15	52.0	52.0	52.0	85	47.6	0	3	112	0.00	29.715 
03:20	52.0	52.0	52.0	85	47.6	0	4	112	0.00	29.715 
03:25	52.0	52.0	52.0	86	47.9	0	3	112	0.00	29.715 
03:30	52.2	52.2	52.2	86	48.1	1	5	112	0.00	29.716 
03:35	52.3	52.3	52.3	85	47.9	1	4	112	0.00	29.716 
03:40	52.3	52.3	52.3	85	47.9	1	3	112	0.00	29.716 
03:45	52.3	52.3	52.3	85	47.9	0	3	112	0.00	29.716 
03:50	52.3	52.3	52.3	85	47.9	0	2	112	0.00	29.716 
03:55	52.3	52.3	52.3	86	48.2	1	2	112	0.00	29.716 
04:00	52.2	52.2	52.2	85	47.8	0	2	112	0.00	29.715 
04:05	52.0	52.0	52.0	86	47.9	0	1	112	0.00	29.715 
04:10	51.7	51.7	51.7	86	47.6	0	2	112	0.00	29.715 
04:15	51.7	51.7	51.7	87	48.0	1	3	112	0.00	29.720 
04:20	51.9	51.9	51.9	87	48.2	0	3	112	0.00	29.720 
04:25	51.7	51.7	51.7	87	48.0	0	1	112	0.00	29.720 
04:30	51.7	51.7	51.7	87	48.0	0	2	112	0.00	29.716 
04:35	51.6	51.6	51.6	87	47.9	0	2	112	0.00	29.716 
04:40	51.4	51.4	51.4	87	47.7	0	3	90	0.00	29.716 
04:45	51.4	51.4	51.4	87	47.7	1	3	90	0.00	29.714 
04:50	51.4	51.4	51.4	88	48.0	0	2	135	0.00	29.714 
04:55	51.4	51.4	51.4	88	48.0	1	3	135	0.00	29.714 
05:00	51.4	51.4	51.4	88	48.0	1	4	135	0.00	29.718 
05:05	51.4	51.4	51.4	88	48.0	1	3	135	0.00	29.718 
05:10	51.3	51.3	51.3	88	47.9	1	3	135	0.00	29.718 
05:15	51.3	51.3	51.3	88	47.9	1	3	135	0.00	29.727 
05:20	51.3	51.3	51.3	88	47.9	1	4	135	0.00	29.727 
05:25	51.3	51.3	51.3	88	47.9	1	3	135	0.00	29.727 
05:30	51.1	51.1	51.1	88	47.7	1	4	135	0.00	29.731 
05:35	51.1	51.1	51.1	88	47.7	0	3	135	0.00	29.731 
05:40	51.0	51.0	51.0	89	47.9	1	3	135	0.00	29.731 
05:45	51.1	51.1	51.1	89	48.0	1	4	90	0.00	29.732 
05:50	51.0	51.0	51.0	89	47.9	0	2	112	0.00	29.732 
05:55	51.0	51.0	51.0	89	47.9	0	1	112	0.00	29.732 
06:00	50.8	50.8	50.8	89	47.7	0	3	112	0.00	29.729 
06:05	50.8	50.8	50.8	89	47.7	0	1	112	0.00	29.729 
06:10	50.8	50.8	50.8	89	47.7	0	2	112	0.00	29.729 
06:15	50.7	50.7	50.7	89	47.6	0	2	112	0.00	29.739 
06:20	50.5	50.5	50.5	89	47.4	0	2	112	0.00	29.739 
06:25	50.4	50.4	50.4	90	47.6	0	1	112	0.00	29.739 
06:30	50.4	50.4	50.4	90	47.6	0	2	112	0.00	29.744 
06:35	50.4	50.4	50.4	90	47.6	0	2	112	0.00	29.744 
06:40	50.2	50.2	50.2	90	47.4	0	2	112	0.00	29.744 
06:45	50.1	50.1	50.1	90	47.3	0	3	112	0.00	29.747 
06:50	50.1	50.1	50.1	90	47.3	0	1	112	0.00	29.747 
06:55	49.9	49.9	49.9	90	47.1	0	2	112	0.00	29.747 
07:00	49.9	49.9	49.9	91	47.4	0	2	112	0.00	29.753 
07:05	50.1	50.1	50.1	91	47.6	0	2	112	0.00	29.753 
07:10	50.2	50.2	50.2	91	47.7	0	3	112	0.00	29.753 
07:15	50.4	50.4	50.4	91	47.9	0	2	112	0.00	29.759 
07:20	50.5	50.5	50.5	91	48.0	0	2	112	0.00	29.759 
07:25	50.7	50.7	50.7	91	48.2	0	1	112	0.00	29.759 
07:30	51.0	51.0	51.0	91	48.5	0	2	112	0.00	29.760 
07:35	51.1	51.1	51.1	91	48.6	0	1	112	0.00	29.760 
07:40	51.3	51.3	51.3	91	48.8	0	1	112	0.00	29.760 
07:45	51.6	51.6	51.6	91	49.1	0	1	112	0.00	29.764 
07:50	51.7	51.7	51.7	91	49.2	0	2	112	0.00	29.764 
07:55	51.9	51.9	51.9	91	49.4	0	1	112	0.00	29.764 
08:00	52.0	52.0	52.0	91	49.5	0	2	112	0.00	29.759 
08:05	52.2	52.2	52.2	91	49.7	0	3	112	0.00	29.759 
08:10	52.3	52.3	52.3	90	49.5	0	3	112	0.00	29.759 
08:15	52.6	52.6	52.6	90	49.7	1	3	112	0.00	29.761 
08:20	52.8	52.8	52.8	90	49.9	1	4	112	0.00	29.761 
08:25	52.9	52.9	52.9	89	49.7	1	4	112	0.00	29.761 
08:30	53.2	53.2	53.2	89	50.0	1	3	90	0.00	29.755 
08:35	53.3	53.3	53.3	88	49.8	1	6	90	0.00	29.755 
08:40	53.8	53.8	53.8	88	50.3	0	3	112	0.00	29.755 
08:45	53.9	53.9	53.9	88	50.4	1	5	112	0.00	29.752 
08:50	54.1	54.1	54.1	87	50.3	1	4	45	0.00	29.752 
08:55	54.4	54.4	54.4	87	50.6	1	4	112	0.00	29.752 
09:00	54.7	54.7	54.7	86	50.6	0	2	135	0.00	29.748 
09:05	54.8	54.8	54.8	85	50.4	1	4	90	0.00	29.748 
09:10	54.8	54.8	54.8	85	50.4	2	6	112	0.00	29.748 
09:15	55.0	55.0	55.0	85	50.6	1	4	112	0.00	29.753 
09:20	55.1	55.1	55.1	84	50.4	1	4	112	0.00	29.753 
09:25	55.1	55.1	55.1	84	50.4	1	4	112	0.00	29.753 
09:30	55.1	55.1	55.1	84	50.4	1	4	112	0.00	29.748 
09:35	55.3	55.3	55.3	85	50.9	0	3	135	0.00	29.748 
09:40	55.3	55.3	55.3	84	50.5	1	4	270	0.00	29.748 
09:45	55.4	55.4	55.4	84	50.6	1	6	90	0.00	29.745 
09:50	55.6	55.6	55.6	84	50.8	0	2	90	0.00	29.745 
09:55	55.9	55.9	55.9	84	51.1	0	2	90	0.00	29.745 
10:00	55.9	55.9	55.9	84	51.1	0	2	90	0.00	29.747 
10:05	56.2	56.2	56.2	84	51.4	0	3	338	0.00	29.747 
10:10	56.5	56.5	56.5	83	51.4	0	1	338	0.00	29.747 
10:15	56.7	56.7	56.7	82	51.3	1	5	90	0.00	29.752 
10:20	57.0	57.0	57.0	81	51.2	1	6	90	0.00	29.752 
10:25	57.3	57.3	57.3	81	51.5	1	5	90	0.00	29.752 
10:30	57.6	57.6	57.6	80	51.5	1	4	68	0.00	29.748 
10:35	58.0	58.0	58.0	79	51.5	1	4	90	0.00	29.748 
10:40	58.3	58.3	58.3	78	51.5	1	5	248	0.00	29.748 
10:45	58.4	58.4	58.4	78	51.6	0	3	248	0.00	29.743 
10:50	58.6	58.6	58.6	78	51.8	0	2	248	0.00	29.743 
10:55	59.0	59.0	59.0	77	51.8	1	6	90	0.00	29.743 
11:00	59.0	59.0	59.0	76	51.4	1	3	135	0.00	29.744 
11:05	59.2	59.2	59.2	76	51.6	0	3	135	0.00	29.744 
11:10	59.3	59.3	59.3	75	51.4	1	4	0	0.00	29.744 
11:15	59.3	59.3	59.3	75	51.4	0	4	248	0.00	29.744 
11:20	59.2	59.2	59.2	75	51.3	1	4	338	0.00	29.744 
11:25	58.7	58.7	58.7	75	50.8	1	3	248	0.00	29.744 
11:30	58.4	58.4	58.4	76	50.9	0	1	248	0.00	29.744 
11:35	58.7	58.7	58.7	78	51.9	0	2	248	0.00	29.744 
11:40	59.3	59.3	59.3	76	51.7	1	3	112	0.00	29.744 
11:45	59.9	59.9	59.9	74	51.6	1	3	112	0.00	29.738 
11:50	60.9	60.9	60.9	74	52.6	1	3	158	0.00	29.738 
11:55	62.1	62.1	62.1	69	51.8	1	4	68	0.00	29.738 
12:00	62.6	62.6	62.6	66	51.1	1	3	248	0.00	29.734 
12:05	62.6	62.6	62.6	64	50.2	1	4	112	0.00	29.734 
12:10	62.1	62.1	62.1	63	49.3	1	4	248	0.00	29.734 
12:15	62.0	62.0	62.0	66	50.5	1	4	90	0.00	29.729 
12:20	61.8	61.8	61.8	65	49.9	2	7	270	0.00	29.729 
12:25	61.8	61.8	61.8	67	50.7	1	3	270	0.00	29.729 
12:30	62.0	62.0	62.0	66	50.5	1	3	68	0.00	29.728 
12:35	62.1	62.1	62.1	66	50.6	1	4	248	0.00	29.728 
12:40	62.1	62.1	62.1	64	49.8	1	6	248	0.00	29.728 
12:45	61.6	61.6	61.6	63	48.9	2	5	248	0.00	29.724 
12:50	61.8	61.8	61.8	64	49.5	1	4	248	0.00	29.724 
12:55	62.1	62.1	62.1	63	49.3	2	4	248	0.00	29.724 
13:00	62.3	62.3	62.3	63	49.5	1	3	248	0.00	29.716 
13:05	62.6	62.6	62.6	62	49.4	1	4	248	0.00	29.716 
13:10	63.1	63.1	63.1	61	49.4	1	4	248	0.00	29.716 
13:15	63.7	63.7	63.7	59	49.1	1	6	248	0.00	29.716 
13:20	64.0	64.0	64.0	58	48.9	1	3	248	0.00	29.716 
13:25	64.2	64.2	64.2	59	49.6	1	4	248	0.00	29.716 
13:30	64.3	64.3	64.3	58	49.2	1	4	248	0.00	29.714 
13:35	64.5	64.5	64.5	58	49.4	0	2	248	0.00	29.714 
13:40	64.7	64.7	64.7	56	48.6	1	3	248	0.00	29.714 
13:45	65.3	65.3	65.3	56	49.2	1	5	248	0.00	29.713 
13:50	65.6	65.6	65.6	54	48.5	1	3	248	0.00	29.713 
13:55	65.2	65.2	65.2	54	48.1	1	3	248	0.00	29.713 
14:00	64.5	64.5	64.5	55	48.0	1	3	248	0.00	29.713 
14:05	64.0	64.0	64.0	56	48.0	1	3	248	0.00	29.713 
14:10	63.9	63.9	63.9	56	47.9	1	3	248	0.00	29.713 
14:15	63.9	63.9	63.9	58	48.8	0	2	248	0.00	29.711 
14:20	64.3	64.3	64.3	60	50.1	1	3	248	0.00	29.711 
14:25	64.5	64.5	64.5	54	47.5	1	5	248	0.00	29.711 
14:30	64.5	64.5	64.5	56	48.4	1	7	248	0.00	29.708 
14:35	65.0	65.0	65.0	59	50.3	1	7	45	0.00	29.708 
14:40	65.5	65.5	65.5	52	47.4	1	5	225	0.00	29.708 
14:45	65.3	65.3	65.3	52	47.2	2	6	248	0.00	29.708 
14:50	65.3	65.3	65.3	51	46.7	2	4	248	0.00	29.708 
14:55	65.2	65.2	65.2	52	47.1	1	4	248	0.00	29.708 
15:00	65.5	65.5	65.5	53	47.9	1	5	248	0.00	29.705 
15:05	65.5	65.5	65.5	51	46.9	2	5	248	0.00	29.705 
15:10	65.5	65.5	65.5	51	46.9	2	4	248	0.00	29.705 
15:15	65.6	65.6	65.6	50	46.5	2	5	248	0.00	29.704 
15:20	65.6	65.6	65.6	52	47.5	1	4	248	0.00	29.704 
15:25	65.5	65.5	65.5	51	46.9	2	9	248	0.00	29.704 
15:30	65.3	65.3	65.3	52	47.2	1	4	270	0.00	29.707 
15:35	65.5	65.5	65.5	54	48.4	1	5	270	0.00	29.707 
15:40	66.0	66.0	66.0	50	46.8	2	5	248	0.00	29.707 
15:45	66.9	66.9	66.9	49	47.1	2	5	248	0.00	29.706 
15:50	66.9	66.9	66.9	48	46.6	2	5	248	0.00	29.706 
15:55	66.3	66.3	66.3	49	46.6	1	4	248	0.00	29.706 
16:00	65.6	65.6	65.6	48	45.4	2	5	248	0.00	29.706 
16:05	65.2	65.2	65.2	50	46.1	1	4	248	0.00	29.706 
16:10	64.7	64.7	64.7	51	46.1	1	3	248	0.00	29.706 
16:15	64.3	64.3	64.3	51	45.8	1	4	248	0.00	29.709 
16:20	64.0	64.0	64.0	52	46.0	2	5	248	0.00	29.709 
16:25	63.9	63.9	63.9	53	46.4	2	5	248	0.00	29.709 
16:30	63.7	63.7	63.7	55	47.2	2	5	248	0.00	29.714 
16:35	63.2	63.2	63.2	57	47.7	2	4	248	0.00	29.714 
16:40	62.9	62.9	62.9	57	47.4	2	4	248	0.00	29.714 
16:45	62.9	62.9	62.9	59	48.3	1	3	248	0.00	29.714 
16:50	62.7	62.7	62.7	58	47.7	1	3	248	0.00	29.714 
16:55	62.6	62.6	62.6	58	47.6	1	4	248	0.00	29.714 
17:00	62.4	62.4	62.4	58	47.4	1	3	248	0.00	29.713 
17:05	62.4	62.4	62.4	58	47.4	1	4	248	0.00	29.713 
17:10	62.3	62.3	62.3	57	46.9	2	4	270	0.00	29.713 
17:15	62.1	62.1	62.1	58	47.1	2	5	270	0.00	29.715 
17:20	62.0	62.0	62.0	58	47.0	2	4	248	0.00	29.715 
17:25	61.6	61.6	61.6	59	47.1	2	4	248	0.00	29.715 
17:30	61.3	61.3	61.3	60	47.3	3	5	292	0.00	29.730 
17:35	61.3	61.3	61.3	58	46.4	2	4	248	0.00	29.730 
17:40	61.3	61.3	61.3	58	46.4	2	5	248	0.00	29.730 
17:45	61.2	61.2	61.2	57	45.8	2	4	270	0.00	29.731 
17:50	61.2	61.2	61.2	58	46.3	2	5	270	0.00	29.731 
17:55	61.2	61.2	61.2	57	45.8	2	4	248	0.00	29.731 
18:00	61.0	61.0	61.0	58	46.1	1	3	248	0.00	29.737 
18:05	60.9	60.9	60.9	57	45.6	2	5	248	0.00	29.737 
18:10	60.7	60.7	60.7	56	44.9	2	5	292	0.00	29.737 
18:15	60.4	60.4	60.4	57	45.1	2	6	270	0.00	29.739 
18:20	60.2	60.2	60.2	57	44.9	2	4	270	0.00	29.739 
18:25	60.1	60.1	60.1	57	44.8	1	2	270	0.00	29.739 
18:30	60.2	60.2	60.2	57	44.9	1	3	270	0.00	29.741 
18:35	60.2	60.2	60.2	57	44.9	1	4	270	0.00	29.741 
18:40	59.9	59.9	59.9	57	44.6	2	5	270	0.00	29.741 
18:45	59.6	59.6	59.6	57	44.3	2	4	248	0.00	29.742 
18:50	59.3	59.3	59.3	58	44.5	3	5	248	0.00	29.742 
18:55	58.9	58.9	58.9	60	45.0	3	5	248	0.00	29.742 
19:00	58.6	58.6	58.6	62	45.6	2	4	248	0.00	29.746 
19:05	58.3	58.3	58.3	63	45.8	2	7	248	0.00	29.746 
19:10	57.8	57.8	57.8	63	45.3	2	6	248	0.00	29.746 
19:15	57.2	57.2	57.2	64	45.1	2	4	248	0.00	29.749 
19:20	56.9	56.9	56.9	65	45.3	2	3	248	0.00	29.749 
19:25	56.6	56.6	56.6	66	45.4	3	5	292	0.00	29.749 
19:30	56.3	56.3	56.3	67	45.5	2	4	270	0.00	29.753 
19:35	56.2	56.2	56.2	67	45.4	2	4	270	0.00	29.753 
19:40	56.0	56.0	56.0	68	45.6	1	3	270	0.00	29.753 
19:45	55.7	55.7	55.7	68	45.3	2	4	270	0.00	29.761 
19:50	55.6	55.6	55.6	68	45.2	2	3	270	0.00	29.761 
19:55	55.4	55.4	55.4	68	45.0	2	4	270	0.00	29.761 
20:00	55.3	55.3	55.3	68	44.9	2	5	248	0.00	29.778 
20:05	55.0	55.0	55.0	68	44.6	2	5	248	0.00	29.778 
20:10	54.8	54.8	54.8	68	44.4	2	4	248	0.00	29.778 
20:15	54.7	54.7	54.7	68	44.3	2	5	248	0.00	29.783 
20:20	54.5	54.5	54.5	69	44.5	1	4	248	0.00	29.783 
20:25	54.4	54.4	54.4	70	44.8	1	4	248	0.00	29.783 
20:30	54.1	54.1	54.1	71	44.9	2	5	248	0.00	29.793 
20:35	53.8	53.8	53.8	73	45.3	2	5	270	0.00	29.793 
20:40	53.2	53.2	53.2	74	45.1	2	4	248	0.00	29.793 
20:45	52.8	52.8	52.8	75	45.1	2	5	248	0.00	29.795 
20:50	52.3	52.3	52.3	75	44.6	3	5	270	0.00	29.795 
20:55	52.2	52.2	52.2	76	44.9	3	6	270	0.00	29.795 
21:00	52.0	52.0	52.0	76	44.7	2	5	270	0.00	29.801 
21:05	52.0	52.0	52.0	76	44.7	1	3	270	0.00	29.801 
21:10	51.7	51.7	51.7	75	44.0	1	3	270	0.00	29.801 
21:15	51.7	51.7	51.7	74	43.7	1	5	270	0.00	29.809 
21:20	51.6	51.6	51.6	74	43.6	3	6	248	0.00	29.809 
21:25	51.4	51.4	51.4	74	43.4	2	4	248	0.00	29.809 
21:30	51.3	51.3	51.3	72	42.6	3	6	270	0.00	29.812 
21:35	51.0	51.0	51.0	72	42.3	3	6	248	0.00	29.812 
21:40	50.8	50.8	50.8	72	42.1	3	5	270	0.00	29.812 
21:45	50.7	50.7	50.7	73	42.4	1	5	248	0.00	29.815 
21:50	50.7	50.7	50.7	73	42.4	2	5	248	0.00	29.815 
21:55	50.5	50.5	50.5	73	42.2	1	4	248	0.00	29.815 
22:00	50.4	50.4	50.4	72	41.7	2	6	248	0.00	29.823 
22:05	50.2	50.2	50.2	72	41.5	2	5	248	0.00	29.823 
22:10	50.1	50.1	50.1	72	41.4	2	5	248	0.00	29.823 
22:15	49.9	49.9	49.9	72	41.2	1	4	248	0.00	29.826 
22:20	49.8	49.8	49.8	72	41.1	2	6	248	0.00	29.826 
22:25	49.8	49.8	49.8	72	41.1	2	6	292	0.00	29.826 
22:30	49.6	49.6	49.6	72	40.9	1	4	292	0.00	29.831 
22:35	49.5	49.5	49.5	72	40.9	1	4	292	0.00	29.831 
22:40	49.4	49.4	49.4	72	40.8	1	3	270	0.00	29.831 
22:45	49.4	49.4	49.4	72	40.8	1	3	270	0.00	29.837 
22:50	49.1	49.1	49.1	71	40.1	2	4	270	0.00	29.837 
22:55	48.9	48.9	48.9	71	39.9	1	5	270	0.00	29.837 
23:00	48.8	48.8	48.8	70	39.5	2	4	248	0.00	29.832 
23:05	48.6	48.6	48.6	70	39.3	1	3	248	0.00	29.832 
23:10	48.5	48.5	48.5	70	39.2	1	4	248	0.00	29.832 
23:15	48.5	48.5	48.5	69	38.8	1	4	248	0.00	29.827 
23:20	48.3	48.3	48.3	68	38.2	3	6	270	0.00	29.827 
23:25	48.2	48.2	48.2	68	38.1	1	4	270	0.00	29.827 
23:30	48.0	48.0	48.0	67	37.6	1	3	270	0.00	29.826 
23:35	48.0	48.0	48.0	67	37.6	1	2	270	0.00	29.826 
23:40	47.9	47.9	47.9	67	37.5	1	4	270	0.00	29.826 
23:45	47.7	47.7	47.7	67	37.3	1	4	270	0.00	29.824 
23:50	47.4	47.4	47.4	67	37.0	1	4	270	0.00	29.824 
23:55	47.3	47.3	47.3	68	37.3	1	3	270	0.00	29.824 

CoCoRaHS
IN-AL-39
A2 Web Hosting
Creative Commons License
GoDaddy
search engine by freefind advanced

loaded 2018-11-13 01:37:43 • last modified 2010-11-18 10:43:29
Privacy PolicyDisclaimer
• wx.awcolley.com is powered by PmWiki v.2002016 •
• all content (unless otherwise noted) © 2018 A W Colley